Terminal Aerodrome Forecast
Issued by NWS

Home | Current Version | Previous Version | Text Only | Print | Product List | Glossary On
Versions: 1 2 3 4 5 6 7 8 9 10 11 12 13 14 15 16 17
640
FTAK31 PAJN 011131
TAFAJN
TAF
PAJN 011131Z 0112/0212 12015KT P6SM -RA SCT025 BKN035 OVC050
      WS020/15035KT
     FM011500 09010KT P6SM -RA SCT025 BKN035 OVC050
     FM012100 12010KT 6SM -RA BR SCT015 BKN025 OVC040
     FM020300 13015KT 5SM RA BR SCT012 BKN020 OVC025
     FM020800 12015G25KT 4SM RA BR BKN015 OVC020 WS020/15035KT=

USA.gov is the U.S. government's official web portal to all federal, state and local government web resources and services.